sensor_id;sensor_type;location;lat;lon;timestamp;pressure;altitude;pressure_sealevel;temperature;humidity
53699;BME280;68408;53.952;27.612;2023-03-26T00:03:45;995.5;;;9.4;59.2
53699;BME280;68408;53.952;27.612;2023-03-26T00:08:36;995.5;;;9.4;59
53699;BME280;68408;53.952;27.612;2023-03-26T00:14:11;995.4;;;9.4;59.2
53699;BME280;68408;53.952;27.612;2023-03-26T00:19:21;995.4;;;9.4;59.3
53699;BME280;68408;53.952;27.612;2023-03-26T00:23:56;995.4;;;9.5;59.2
53699;BME280;68408;53.952;27.612;2023-03-26T00:29:05;995.3;;;9.5;59.3
53699;BME280;68408;53.952;27.612;2023-03-26T00:33:57;995.4;;;9.5;59.7
53699;BME280;68408;53.952;27.612;2023-03-26T00:39:09;995.3;;;9.4;59.9
53699;BME280;68408;53.952;27.612;2023-03-26T00:44:09;995.3;;;9.5;59.9
53699;BME280;68408;53.952;27.612;2023-03-26T00:48:55;995.2;;;9.5;59.9
53699;BME280;68408;53.952;27.612;2023-03-26T00:53:35;995.2;;;9.4;59.9
53699;BME280;68408;53.952;27.612;2023-03-26T00:59:07;995.2;;;9.4;60
53699;BME280;68408;53.952;27.612;2023-03-26T01:04:18;995.2;;;9.5;60
53699;BME280;68408;53.952;27.612;2023-03-26T01:09:28;995.2;;;9.6;59.9
53699;BME280;68408;53.952;27.612;2023-03-26T01:13:58;995.2;;;9.7;60
53699;BME280;68408;53.952;27.612;2023-03-26T01:18:55;995.1;;;9.7;60.8
53699;BME280;68408;53.952;27.612;2023-03-26T01:23:55;995;;;9.8;61.2
53699;BME280;68408;53.952;27.612;2023-03-26T01:29:13;994.9;;;9.9;61.2
53699;BME280;68408;53.952;27.612;2023-03-26T01:34:22;994.9;;;9.9;61.5
53699;BME280;68408;53.952;27.612;2023-03-26T01:38:58;994.9;;;9.9;62.2
53699;BME280;68408;53.952;27.612;2023-03-26T01:43:46;995;;;10;63
53699;BME280;68408;53.952;27.612;2023-03-26T01:48:36;995;;;9.9;63.7
53699;BME280;68408;53.952;27.612;2023-03-26T01:54:07;995;;;9.9;63.8
53699;BME280;68408;53.952;27.612;2023-03-26T01:59:24;995;;;9.9;63.2
53699;BME280;68408;53.952;27.612;2023-03-26T02:03:57;995;;;9.9;63.3
53699;BME280;68408;53.952;27.612;2023-03-26T02:08:46;994.9;;;9.9;63.5
53699;BME280;68408;53.952;27.612;2023-03-26T02:14:13;994.8;;;9.9;63.8
53699;BME280;68408;53.952;27.612;2023-03-26T02:19:11;994.8;;;9.9;63.6
53699;BME280;68408;53.952;27.612;2023-03-26T02:24:23;994.8;;;9.9;63.5
53699;BME280;68408;53.952;27.612;2023-03-26T02:28:55;994.8;;;9.9;63.3
53699;BME280;68408;53.952;27.612;2023-03-26T02:33:35;994.7;;;9.9;63.2
53699;BME280;68408;53.952;27.612;2023-03-26T02:38:57;994.7;;;9.8;63
53699;BME280;68408;53.952;27.612;2023-03-26T02:44:09;994.6;;;9.7;63.3
53699;BME280;68408;53.952;27.612;2023-03-26T02:49:21;994.6;;;9.6;63.5
53699;BME280;68408;53.952;27.612;2023-03-26T02:53:55;994.6;;;9.5;63.5
53699;BME280;68408;53.952;27.612;2023-03-26T02:58:45;994.6;;;9.5;63.4
53699;BME280;68408;53.952;27.612;2023-03-26T03:04:13;994.6;;;9.5;63.6
53699;BME280;68408;53.952;27.612;2023-03-26T03:09:11;994.6;;;9.4;63.9
53699;BME280;68408;53.952;27.612;2023-03-26T03:14:25;994.6;;;9.4;64.3
53699;BME280;68408;53.952;27.612;2023-03-26T03:19:14;994.6;;;9.5;64.4
53699;BME280;68408;53.952;27.612;2023-03-26T03:23:57;994.6;;;9.5;64.2
53699;BME280;68408;53.952;27.612;2023-03-26T03:28:57;994.6;;;9.4;64
53699;BME280;68408;53.952;27.612;2023-03-26T03:34:11;994.6;;;9.3;64.1
53699;BME280;68408;53.952;27.612;2023-03-26T03:39:23;994.6;;;9.3;64.2
53699;BME280;68408;53.952;27.612;2023-03-26T03:44:09;994.7;;;9.4;64.1
53699;BME280;68408;53.952;27.612;2023-03-26T03:48:35;994.7;;;9.4;64.2
53699;BME280;68408;53.952;27.612;2023-03-26T03:53:57;994.7;;;9.3;64.6
53699;BME280;68408;53.952;27.612;2023-03-26T03:59:11;994.7;;;9.3;64.8
53699;BME280;68408;53.952;27.612;2023-03-26T04:04:23;994.7;;;9.3;65
53699;BME280;68408;53.952;27.612;2023-03-26T04:09:11;994.7;;;9.3;65.3
53699;BME280;68408;53.952;27.612;2023-03-26T04:13:35;994.7;;;9.3;65.7
53699;BME280;68408;53.952;27.612;2023-03-26T04:18:55;994.7;;;9.3;66
53699;BME280;68408;53.952;27.612;2023-03-26T04:24:11;994.7;;;9.3;66.1
53699;BME280;68408;53.952;27.612;2023-03-26T04:29:23;994.7;;;9.4;66.3
53699;BME280;68408;53.952;27.612;2023-03-26T04:34:15;994.7;;;9.5;66.4
53699;BME280;68408;53.952;27.612;2023-03-26T04:38:55;994.7;;;9.5;66.8
53699;BME280;68408;53.952;27.612;2023-03-26T04:43:57;994.7;;;9.6;67.1
53699;BME280;68408;53.952;27.612;2023-03-26T04:49:13;994.7;;;9.6;67.5
53699;BME280;68408;53.952;27.612;2023-03-26T04:54:21;994.7;;;9.5;68.4
53699;BME280;68408;53.952;27.612;2023-03-26T04:59:12;994.7;;;9.5;69.1
53699;BME280;68408;53.952;27.612;2023-03-26T05:03:45;994.8;;;9.3;70
53699;BME280;68408;53.952;27.612;2023-03-26T05:09:15;994.8;;;9.2;71.2
53699;BME280;68408;53.952;27.612;2023-03-26T05:14:07;994.7;;;9.2;71.6
53699;BME280;68408;53.952;27.612;2023-03-26T05:19:23;994.7;;;9.2;71.9
53699;BME280;68408;53.952;27.612;2023-03-26T05:24:07;994.7;;;9.2;72.1
53699;BME280;68408;53.952;27.612;2023-03-26T05:29:03;994.7;;;9.2;72
53699;BME280;68408;53.952;27.612;2023-03-26T05:33:53;994.7;;;9.3;71.9
53699;BME280;68408;53.952;27.612;2023-03-26T05:39:09;994.7;;;9.4;71.7
53699;BME280;68408;53.952;27.612;2023-03-26T05:44:19;994.7;;;9.5;71.4
53699;BME280;68408;53.952;27.612;2023-03-26T05:49:07;994.7;;;9.5;71.1
53699;BME280;68408;53.952;27.612;2023-03-26T05:53:35;994.7;;;9.6;70.9
53699;BME280;68408;53.952;27.612;2023-03-26T05:58:55;994.8;;;9.6;70.8
53699;BME280;68408;53.952;27.612;2023-03-26T06:04:07;994.7;;;9.7;70.8
53699;BME280;68408;53.952;27.612;2023-03-26T06:09:19;994.8;;;9.8;70.4
53699;BME280;68408;53.952;27.612;2023-03-26T06:14:07;994.8;;;9.9;70.1
53699;BME280;68408;53.952;27.612;2023-03-26T06:18:45;994.8;;;10;70.2
53699;BME280;68408;53.952;27.612;2023-03-26T06:23:57;994.7;;;10.2;69.6
53699;BME280;68408;53.952;27.612;2023-03-26T06:29:09;994.7;;;10.4;69.1
53699;BME280;68408;53.952;27.612;2023-03-26T06:34:05;994.8;;;10.5;68.4
53699;BME280;68408;53.952;27.612;2023-03-26T06:39:11;994.8;;;10.6;68.3
53699;BME280;68408;53.952;27.612;2023-03-26T06:43:47;994.8;;;10.7;68
53699;BME280;68408;53.952;27.612;2023-03-26T06:48:57;994.8;;;10.8;68.1
53699;BME280;68408;53.952;27.612;2023-03-26T06:54:11;994.8;;;10.9;68
53699;BME280;68408;53.952;27.612;2023-03-26T06:59:17;994.8;;;10.8;67.6
53699;BME280;68408;53.952;27.612;2023-03-26T07:03:57;994.7;;;10.8;67.4
53699;BME280;68408;53.952;27.612;2023-03-26T07:08:45;994.8;;;10.9;67.7
53699;BME280;68408;53.952;27.612;2023-03-26T07:14:15;994.7;;;10.8;67.8
53699;BME280;68408;53.952;27.612;2023-03-26T07:19:11;994.7;;;10.9;67.9
53699;BME280;68408;53.952;27.612;2023-03-26T07:24:11;994.7;;;11;67.4
53699;BME280;68408;53.952;27.612;2023-03-26T07:29:24;994.8;;;10.9;67.6
53699;BME280;68408;53.952;27.612;2023-03-26T07:33:47;994.8;;;10.9;67.4
53699;BME280;68408;53.952;27.612;2023-03-26T07:38:49;994.8;;;10.9;67.2
53699;BME280;68408;53.952;27.612;2023-03-26T07:43:52;994.9;;;11;67.2
53699;BME280;68408;53.952;27.612;2023-03-26T07:49:13;994.9;;;10.8;67.2
53699;BME280;68408;53.952;27.612;2023-03-26T07:54:23;994.9;;;10.8;67.4
53699;BME280;68408;53.952;27.612;2023-03-26T07:59:25;994.9;;;10.8;67.7
53699;BME280;68408;53.952;27.612;2023-03-26T08:03:50;994.9;;;10.7;67.8
53699;BME280;68408;53.952;27.612;2023-03-26T08:08:37;994.8;;;10.7;67.8
53699;BME280;68408;53.952;27.612;2023-03-26T08:14:14;994.7;;;10.9;68.1
53699;BME280;68408;53.952;27.612;2023-03-26T08:19:29;994.7;;;11;67.2
53699;BME280;68408;53.952;27.612;2023-03-26T08:23:38;994.7;;;11.1;66.4
53699;BME280;68408;53.952;27.612;2023-03-26T08:29:02;994.8;;;11.3;65.8
53699;BME280;68408;53.952;27.612;2023-03-26T08:33:35;994.8;;;11.5;65.3
53699;BME280;68408;53.952;27.612;2023-03-26T08:39:11;994.9;;;11.9;64.7
53699;BME280;68408;53.952;27.612;2023-03-26T08:44:03;994.9;;;12.1;63.1
53699;BME280;68408;53.952;27.612;2023-03-26T08:49:10;994.9;;;12.5;62.2
53699;BME280;68408;53.952;27.612;2023-03-26T08:59:19;994.9;;;12.5;61.5
53699;BME280;68408;53.952;27.612;2023-03-26T09:04:12;994.9;;;12.4;61.1
53699;BME280;68408;53.952;27.612;2023-03-26T09:10:24;994.9;;;12.3;61.4
53699;BME280;68408;53.952;27.612;2023-03-26T09:14:12;994.8;;;12.5;60.5
53699;BME280;68408;53.952;27.612;2023-03-26T09:19:34;994.8;;;12.7;60.1
53699;BME280;68408;53.952;27.612;2023-03-26T09:23:42;994.8;;;12.9;59.4
53699;BME280;68408;53.952;27.612;2023-03-26T09:34:27;994.8;;;13.4;58.6
53699;BME280;68408;53.952;27.612;2023-03-26T09:38:57;994.8;;;13.4;58.3
53699;BME280;68408;53.952;27.612;2023-03-26T09:43:41;994.8;;;13.3;57.8
53699;BME280;68408;53.952;27.612;2023-03-26T09:48:51;994.8;;;13.3;57.8
53699;BME280;68408;53.952;27.612;2023-03-26T09:54:14;994.8;;;13.5;57.2
53699;BME280;68408;53.952;27.612;2023-03-26T09:59:31;994.8;;;13.4;57.2
53699;BME280;68408;53.952;27.612;2023-03-26T10:04:00;994.8;;;13.3;57.6
53699;BME280;68408;53.952;27.612;2023-03-26T10:10:00;994.8;;;12.7;58.5
53699;BME280;68408;53.952;27.612;2023-03-26T10:13:38;994.7;;;12.7;59
53699;BME280;68408;53.952;27.612;2023-03-26T10:18:57;994.7;;;13.2;57.5
53699;BME280;68408;53.952;27.612;2023-03-26T10:24:26;994.6;;;13.5;57.4
53699;BME280;68408;53.952;27.612;2023-03-26T10:28:51;994.5;;;13.7;56.5
53699;BME280;68408;53.952;27.612;2023-03-26T10:33:59;994.5;;;13.7;56
53699;BME280;68408;53.952;27.612;2023-03-26T10:38:50;994.5;;;13.7;55
53699;BME280;68408;53.952;27.612;2023-03-26T10:44:14;994.6;;;13.9;54
53699;BME280;68408;53.952;27.612;2023-03-26T10:49:59;994.6;;;14;53.1
53699;BME280;68408;53.952;27.612;2023-03-26T10:53:48;994.6;;;13.9;53.4
53699;BME280;68408;53.952;27.612;2023-03-26T10:58:57;994.6;;;13.6;53.8
53699;BME280;68408;53.952;27.612;2023-03-26T11:03:45;994.5;;;13.5;53.6
53699;BME280;68408;53.952;27.612;2023-03-26T11:09:07;994.5;;;13.5;53.8
53699;BME280;68408;53.952;27.612;2023-03-26T11:14:22;994.5;;;13.6;53.9
53699;BME280;68408;53.952;27.612;2023-03-26T11:18:38;994.4;;;13.7;52.9
53699;BME280;68408;53.952;27.612;2023-03-26T11:24:30;994.4;;;13.7;52.8
53699;BME280;68408;53.952;27.612;2023-03-26T11:29:00;994.3;;;13.8;52.6
53699;BME280;68408;53.952;27.612;2023-03-26T11:34:09;994.3;;;13.9;51.8
53699;BME280;68408;53.952;27.612;2023-03-26T11:39:24;994.3;;;13.9;51.9
53699;BME280;68408;53.952;27.612;2023-03-26T11:43:35;994.2;;;14;52.2
53699;BME280;68408;53.952;27.612;2023-03-26T11:48:58;994.2;;;14;52
53699;BME280;68408;53.952;27.612;2023-03-26T11:53:36;994.1;;;13.8;52.3
53699;BME280;68408;53.952;27.612;2023-03-26T11:59:08;994.2;;;13.6;53
53699;BME280;68408;53.952;27.612;2023-03-26T12:04:24;994.2;;;13.3;54.6
53699;BME280;68408;53.952;27.612;2023-03-26T12:09:14;994.1;;;13;52.4
53699;BME280;68408;53.952;27.612;2023-03-26T12:13:57;994;;;13;52.3
53699;BME280;68408;53.952;27.612;2023-03-26T12:18:36;994;;;13;51.6
53699;BME280;68408;53.952;27.612;2023-03-26T12:24:13;994;;;12.7;49.4
53699;BME280;68408;53.952;27.612;2023-03-26T12:29:23;994;;;12.6;50.7
53699;BME280;68408;53.952;27.612;2023-03-26T12:34:05;994;;;12.5;53.2
53699;BME280;68408;53.952;27.612;2023-03-26T12:38:43;993.9;;;12.5;54.2
53699;BME280;68408;53.952;27.612;2023-03-26T12:43:44;993.9;;;12.5;54.3
53699;BME280;68408;53.952;27.612;2023-03-26T12:49:11;993.9;;;12.4;54.4
53699;BME280;68408;53.952;27.612;2023-03-26T12:54:26;993.9;;;12.4;53.6
53699;BME280;68408;53.952;27.612;2023-03-26T12:59:25;993.8;;;12.4;53.1
53699;BME280;68408;53.952;27.612;2023-03-26T13:04:00;993.8;;;12.3;53
53699;BME280;68408;53.952;27.612;2023-03-26T13:08:46;993.7;;;12.3;54.2
53699;BME280;68408;53.952;27.612;2023-03-26T13:14:13;993.8;;;12.4;55.8
53699;BME280;68408;53.952;27.612;2023-03-26T13:19:22;993.8;;;12.4;56.3
53699;BME280;68408;53.952;27.612;2023-03-26T13:24:14;994;;;12.3;56.7
53699;BME280;68408;53.952;27.612;2023-03-26T13:28:47;994;;;12.2;58.2
53699;BME280;68408;53.952;27.612;2023-03-26T13:34:13;994.1;;;12.1;58.6
53699;BME280;68408;53.952;27.612;2023-03-26T13:39:13;994.2;;;12;59.1
53699;BME280;68408;53.952;27.612;2023-03-26T13:44:24;994.3;;;11.9;59.2
53699;BME280;68408;53.952;27.612;2023-03-26T13:49:12;994.4;;;11.5;61.1
53699;BME280;68408;53.952;27.612;2023-03-26T13:53:45;994.4;;;11.3;62.2
53699;BME280;68408;53.952;27.612;2023-03-26T13:58:45;994.4;;;11.4;61.9
53699;BME280;68408;53.952;27.612;2023-03-26T14:04:12;994.3;;;11.7;61.7
53699;BME280;68408;53.952;27.612;2023-03-26T14:09:20;994.2;;;11.8;62
53699;BME280;68408;53.952;27.612;2023-03-26T14:14:08;994.1;;;12;61.2
53699;BME280;68408;53.952;27.612;2023-03-26T14:18:55;994.1;;;12.3;59.6
53699;BME280;68408;53.952;27.612;2023-03-26T14:24:22;994;;;12.4;57.6
53699;BME280;68408;53.952;27.612;2023-03-26T14:29:13;993.9;;;12.4;57.8
53699;BME280;68408;53.952;27.612;2023-03-26T14:34:26;993.9;;;12.3;58.7
53699;BME280;68408;53.952;27.612;2023-03-26T14:39:13;993.9;;;12.1;58.9
53699;BME280;68408;53.952;27.612;2023-03-26T14:44:20;993.9;;;11.9;59.3
53699;BME280;68408;53.952;27.612;2023-03-26T14:48:42;993.9;;;11.8;59.6
53699;BME280;68408;53.952;27.612;2023-03-26T14:53:39;993.9;;;11.6;60.1
53699;BME280;68408;53.952;27.612;2023-03-26T14:59:32;993.8;;;11.5;60.4
53699;BME280;68408;53.952;27.612;2023-03-26T15:04:17;993.8;;;11.3;60.7
53699;BME280;68408;53.952;27.612;2023-03-26T15:09:44;993.8;;;11.2;61.1
53699;BME280;68408;53.952;27.612;2023-03-26T15:14:04;993.9;;;11.1;61.6
53699;BME280;68408;53.952;27.612;2023-03-26T15:24:25;993.9;;;10.9;61.6
53699;BME280;68408;53.952;27.612;2023-03-26T15:29:01;994;;;10.8;61.7
53699;BME280;68408;53.952;27.612;2023-03-26T15:33:59;994.1;;;10.7;62.2
53699;BME280;68408;53.952;27.612;2023-03-26T15:39:03;994.1;;;10.6;62.8
53699;BME280;68408;53.952;27.612;2023-03-26T15:44:18;994;;;10.5;63.7
53699;BME280;68408;53.952;27.612;2023-03-26T15:49:18;993.9;;;10.5;63.1
53699;BME280;68408;53.952;27.612;2023-03-26T15:54:08;993.9;;;10.5;62.7
53699;BME280;68408;53.952;27.612;2023-03-26T15:59:27;993.9;;;10.5;62.2
53699;BME280;68408;53.952;27.612;2023-03-26T16:03:38;993.9;;;10.5;62.1
53699;BME280;68408;53.952;27.612;2023-03-26T16:09:26;993.9;;;10.5;62.1
53699;BME280;68408;53.952;27.612;2023-03-26T16:14:08;993.9;;;10.6;62.2
53699;BME280;68408;53.952;27.612;2023-03-26T16:18:36;994;;;10.5;61.9
53699;BME280;68408;53.952;27.612;2023-03-26T16:24:22;994;;;10.4;62
53699;BME280;68408;53.952;27.612;2023-03-26T16:29:04;994.1;;;10.3;62.1
53699;BME280;68408;53.952;27.612;2023-03-26T16:34:36;994.1;;;10.3;61.9
53699;BME280;68408;53.952;27.612;2023-03-26T16:39:11;994.1;;;10.3;61.1
53699;BME280;68408;53.952;27.612;2023-03-26T16:43:54;994.1;;;10.2;61.6
53699;BME280;68408;53.952;27.612;2023-03-26T16:49:25;994.1;;;10.1;61.5
53699;BME280;68408;53.952;27.612;2023-03-26T16:53:37;994.1;;;10.1;61.3
53699;BME280;68408;53.952;27.612;2023-03-26T16:59:28;994.2;;;10;62.2
53699;BME280;68408;53.952;27.612;2023-03-26T17:04:14;994.2;;;9.7;63.4
53699;BME280;68408;53.952;27.612;2023-03-26T17:08:55;994.1;;;9.6;63.4
53699;BME280;68408;53.952;27.612;2023-03-26T17:14:21;994.1;;;9.6;64
53699;BME280;68408;53.952;27.612;2023-03-26T17:18:47;994.1;;;9.6;64.7
53699;BME280;68408;53.952;27.612;2023-03-26T17:24:24;994.1;;;9.5;65.1
53699;BME280;68408;53.952;27.612;2023-03-26T17:29:23;994.2;;;9.4;65.2
53699;BME280;68408;53.952;27.612;2023-03-26T17:33:54;994.2;;;9.4;65.7
53699;BME280;68408;53.952;27.612;2023-03-26T17:40:28;994.2;;;9.3;65.3
53699;BME280;68408;53.952;27.612;2023-03-26T17:43:51;994.2;;;9.2;65.1
53699;BME280;68408;53.952;27.612;2023-03-26T17:49:05;994.2;;;9.2;64.8
53699;BME280;68408;53.952;27.612;2023-03-26T17:54:12;994.2;;;9.1;65.1
53699;BME280;68408;53.952;27.612;2023-03-26T17:58:44;994.1;;;9;65.4
53699;BME280;68408;53.952;27.612;2023-03-26T18:04:24;994.2;;;9;66
53699;BME280;68408;53.952;27.612;2023-03-26T18:08:54;994.2;;;9.1;66.1
53699;BME280;68408;53.952;27.612;2023-03-26T18:14:20;994.2;;;9.1;66.1
53699;BME280;68408;53.952;27.612;2023-03-26T18:18:39;994.2;;;9.2;65.8
53699;BME280;68408;53.952;27.612;2023-03-26T18:23:52;994.2;;;9.2;66
53699;BME280;68408;53.952;27.612;2023-03-26T18:29:23;994.1;;;9.1;66.1
53699;BME280;68408;53.952;27.612;2023-03-26T18:33:43;994.1;;;9;66.3
53699;BME280;68408;53.952;27.612;2023-03-26T18:39:22;994.1;;;8.9;66.5
53699;BME280;68408;53.952;27.612;2023-03-26T18:44:12;994.1;;;8.8;66.5
53699;BME280;68408;53.952;27.612;2023-03-26T18:48:56;994.1;;;8.9;66.6
53699;BME280;68408;53.952;27.612;2023-03-26T18:54:22;994.1;;;8.9;66.6
53699;BME280;68408;53.952;27.612;2023-03-26T18:58:36;994.1;;;8.9;66.7
53699;BME280;68408;53.952;27.612;2023-03-26T19:04:24;994.2;;;8.9;66.9
53699;BME280;68408;53.952;27.612;2023-03-26T19:09:14;994.1;;;8.9;66
53699;BME280;68408;53.952;27.612;2023-03-26T19:13:49;994.2;;;9;65.1
53699;BME280;68408;53.952;27.612;2023-03-26T19:18:59;994.2;;;9;65.5
53699;BME280;68408;53.952;27.612;2023-03-26T19:23:52;994.2;;;9;65.6
53699;BME280;68408;53.952;27.612;2023-03-26T19:29:22;994.2;;;9;66.1
53699;BME280;68408;53.952;27.612;2023-03-26T19:34:17;994.2;;;9;66.7
53699;BME280;68408;53.952;27.612;2023-03-26T19:38:36;994.2;;;9;67.2
53699;BME280;68408;53.952;27.612;2023-03-26T19:44:24;994.2;;;8.9;67.5
53699;BME280;68408;53.952;27.612;2023-03-26T19:48:49;994.1;;;8.9;67.7
53699;BME280;68408;53.952;27.612;2023-03-26T19:54:20;994.1;;;8.9;67.9
53699;BME280;68408;53.952;27.612;2023-03-26T19:59:14;994.1;;;8.9;68
53699;BME280;68408;53.952;27.612;2023-03-26T20:03:46;994.1;;;8.9;67.5
53699;BME280;68408;53.952;27.612;2023-03-26T20:09:22;994.1;;;8.8;67.5
53699;BME280;68408;53.952;27.612;2023-03-26T20:13:46;994.1;;;8.8;67.9
53699;BME280;68408;53.952;27.612;2023-03-26T20:19:24;994.1;;;8.7;67.5
53699;BME280;68408;53.952;27.612;2023-03-26T20:24:12;994.1;;;8.6;67.2
53699;BME280;68408;53.952;27.612;2023-03-26T20:29:06;994.1;;;8.5;67.1
53699;BME280;68408;53.952;27.612;2023-03-26T20:34:24;994;;;8.4;67.1
53699;BME280;68408;53.952;27.612;2023-03-26T20:38:36;994;;;8.3;67.4
53699;BME280;68408;53.952;27.612;2023-03-26T20:43:58;993.9;;;8.3;67.6
53699;BME280;68408;53.952;27.612;2023-03-26T20:49:24;993.9;;;8.3;67.7
53699;BME280;68408;53.952;27.612;2023-03-26T20:53:54;993.8;;;8.2;68
53699;BME280;68408;53.952;27.612;2023-03-26T20:59:22;993.8;;;8.1;68.3
53699;BME280;68408;53.952;27.612;2023-03-26T21:03:44;993.8;;;8;68.7
53699;BME280;68408;53.952;27.612;2023-03-26T21:08:56;993.8;;;7.9;69.2
53699;BME280;68408;53.952;27.612;2023-03-26T21:14:23;993.8;;;7.8;69.5
53699;BME280;68408;53.952;27.612;2023-03-26T21:18:50;993.8;;;7.8;69.6
53699;BME280;68408;53.952;27.612;2023-03-26T21:24:20;993.8;;;7.8;69.9
53699;BME280;68408;53.952;27.612;2023-03-26T21:28:37;993.8;;;7.8;70.1
53699;BME280;68408;53.952;27.612;2023-03-26T21:34:02;993.8;;;7.9;69.9
53699;BME280;68408;53.952;27.612;2023-03-26T21:39:18;993.8;;;8;69.7
53699;BME280;68408;53.952;27.612;2023-03-26T21:43:52;993.8;;;8;69.6
53699;BME280;68408;53.952;27.612;2023-03-26T21:49:18;993.8;;;8.1;69.1
53699;BME280;68408;53.952;27.612;2023-03-26T21:53:36;993.7;;;8.1;68.5
53699;BME280;68408;53.952;27.612;2023-03-26T21:59:06;993.7;;;8;68.4
53699;BME280;68408;53.952;27.612;2023-03-26T22:04:23;993.7;;;8;68.3
53699;BME280;68408;53.952;27.612;2023-03-26T22:08:52;993.7;;;8.1;68.2
53699;BME280;68408;53.952;27.612;2023-03-26T22:14:18;993.7;;;8;68
53699;BME280;68408;53.952;27.612;2023-03-26T22:18:36;993.7;;;7.9;68.3
53699;BME280;68408;53.952;27.612;2023-03-26T22:23:56;993.7;;;7.9;68.4
53699;BME280;68408;53.952;27.612;2023-03-26T22:29:22;993.7;;;7.9;68.8
53699;BME280;68408;53.952;27.612;2023-03-26T22:33:44;993.7;;;7.9;69
53699;BME280;68408;53.952;27.612;2023-03-26T22:39:20;993.7;;;7.8;69.5
53699;BME280;68408;53.952;27.612;2023-03-26T22:43:46;993.7;;;7.8;69.4
53699;BME280;68408;53.952;27.612;2023-03-26T22:49:04;993.7;;;7.8;69.6
53699;BME280;68408;53.952;27.612;2023-03-26T22:54:22;993.7;;;7.9;69.6
53699;BME280;68408;53.952;27.612;2023-03-26T22:58:52;993.7;;;8;69.6
53699;BME280;68408;53.952;27.612;2023-03-26T23:04:20;993.7;;;8;69.4
53699;BME280;68408;53.952;27.612;2023-03-26T23:09:24;993.7;;;8;69.6
53699;BME280;68408;53.952;27.612;2023-03-26T23:14:04;993.7;;;8;69.3
53699;BME280;68408;53.952;27.612;2023-03-26T23:19:24;993.7;;;8;69.5
53699;BME280;68408;53.952;27.612;2023-03-26T23:23:54;993.7;;;8;69.2
53699;BME280;68408;53.952;27.612;2023-03-26T23:29:22;993.7;;;8.1;69.2
53699;BME280;68408;53.952;27.612;2023-03-26T23:33:46;993.6;;;8.1;69.1
53699;BME280;68408;53.952;27.612;2023-03-26T23:39:22;993.6;;;8.1;69.6
53699;BME280;68408;53.952;27.612;2023-03-26T23:44:22;993.6;;;8.1;69.7
53699;BME280;68408;53.952;27.612;2023-03-26T23:48:54;993.6;;;8.1;69.9
53699;BME280;68408;53.952;27.612;2023-03-26T23:54:22;993.6;;;8.1;70.2
53699;BME280;68408;53.952;27.612;2023-03-26T23:58:46;993.6;;;8;70.3
